Flight Track Log - Related Links

Times and Time Zones

All times are in EDT time to prevent confusion due to time zone crossing. See the AAL556 flight status page for this flight to view local times or setup timezone preferences in your user account.

Time Position Orientation Groundspeed Altitude Reporting Facility
EDT Latitude Longitude Course Direction KTS MPH feet Rate Location/Type
Mon 12:00:36 PM 39.8520 -104.6900 270° West 19 22  Level FlightAware ADS-B
Mon 12:02:12 PM 39.8640 -104.6960 339° North 140 161 2,646 Level FlightAware ADS-B
Mon 12:02:43 PM 39.8905 -104.6960 360° North 205 236 5,600 8,348 Climbing FlightAware ADS-B
Mon 12:02:58 PM 39.9049 -104.6950 North 201 231 6,400 2,857 Climbing FlightAware ADS-B
Mon 12:03:04 PM 39.9098 -104.6940 North 202 232 6,600 2,000 Climbing FlightAware ADS-B
Mon 12:03:10 PM 39.9156 -104.6930 North 205 236 6,800 1,800 Climbing FlightAware ADS-B
Mon 12:03:14 PM 39.9191 -104.6920 12° North 209 241 6,900 1,200 Climbing FlightAware ADS-B
Mon 12:03:20 PM 39.9249 -104.6890 22° Northeast 215 247 7,000 1,091 Climbing FlightAware ADS-B
Mon 12:03:25 PM 39.9297 -104.6860 26° Northeast 224 258 7,100 667 Climbing FlightAware ADS-B
Mon 12:03:29 PM 39.9333 -104.6840 23° Northeast 229 264 7,100 857 Level FlightAware ADS-B
Mon 12:03:32 PM 39.9362 -104.6810 38° Northeast 233 268 7,200 1,143 Climbing FlightAware ADS-B
Mon 12:03:50 PM 39.9540 -104.6660 33° Northeast 256 295 7,500 1,000 Climbing FlightAware ADS-B
Mon 12:03:56 PM 39.9600 -104.6610 33° Northeast 263 303 7,600 1,500 Climbing FlightAware ADS-B
Mon 12:04:06 PM 39.9706 -104.6530 30° Northeast 269 310 7,900 1,846 Climbing FlightAware ADS-B
Mon 12:04:22 PM 39.9885 -104.6410 27° Northeast 280 322 8,400 1,818 Climbing FlightAware ADS-B
Mon 12:04:39 PM 40.0085 -104.6280 26° Northeast 295 339 8,900 2,053 Climbing FlightAware ADS-B
Mon 12:05:00 PM 40.0342 -104.6110 27° Northeast 296 341 9,700 2,000 Climbing FlightAware ADS-B
Mon 12:05:30 PM 40.0729 -104.5850 27° Northeast 326 375 10,600 1,574 Climbing FlightAware ADS-B
Mon 12:06:01 PM 40.1169 -104.5550 28° Northeast 359 413 11,300 1,770 Climbing FlightAware ADS-B
Mon 12:06:31 PM 40.1618 -104.5230 29° Northeast 371 427 12,400 2,164 Climbing FlightAware ADS-B
Mon 12:07:02 PM 40.2097 -104.4900 28° Northeast 383 441 13,500 2,361 Climbing FlightAware ADS-B
Mon 12:07:32 PM 40.2575 -104.4580 27° Northeast 389 448 14,800 2,500 Climbing FlightAware ADS-B
Mon 12:07:50 PM 40.2861 -104.4390 27° Northeast 393 452 15,500 2,364 Climbing FlightAware ADS-B
Mon 12:08:05 PM 40.3122 -104.4220 26° Northeast 396 456 16,100 2,449 Climbing FlightAware ADS-B
Mon 12:08:39 PM 40.3664 -104.3850 27° Northeast 401 461 17,500 2,906 Climbing FlightAware ADS-B
Mon 12:09:09 PM 40.4153 -104.3500 29° Northeast 389 448 19,200 2,656 Climbing FlightAware ADS-B
Mon 12:09:40 PM 40.4637 -104.3160 28° Northeast 395 455 20,200 1,869 Climbing FlightAware ADS-B
Mon 12:10:10 PM 40.5135 -104.2810 28° Northeast 405 466 21,100 1,962 Climbing FlightAware ADS-B
Mon 12:10:32 PM 40.5504 -104.2550 28° Northeast 408 470 21,900 2,069 Climbing FlightAware ADS-B
Mon 12:10:39 PM 40.5614 -104.2460 32° Northeast 409 471 22,100 1,935 Climbing FlightAware ADS-B
Mon 12:11:03 PM 40.5980 -104.2100 37° Northeast 412 474 22,900 1,588 Climbing FlightAware ADS-B
Mon 12:11:13 PM 40.6122 -104.1930 42° Northeast 414 476 23,000 143 Climbing FlightAware ADS-B
Mon 12:11:45 PM 40.6565 -104.1360 44° Northeast 419 482 23,000 286 Level FlightAware ADS-B
Mon 12:12:16 PM 40.6987 -104.0820 44° Northeast 417 480 23,300 1,180 Climbing FlightAware ADS-B
Mon 12:12:46 PM 40.7405 -104.0280 44° Northeast 422 486 24,200 1,400 Climbing FlightAware ADS-B
Mon 12:13:16 PM 40.7831 -103.9740 44° Northeast 435 501 24,700 800 Climbing FlightAware ADS-B
Mon 12:13:46 PM 40.8277 -103.9160 45° Northeast 456 525 25,000 500 Climbing FlightAware ADS-B
Mon 12:14:16 PM 40.8744 -103.8560 44° Northeast 477 549 25,200 885 Climbing FlightAware ADS-B
Mon 12:14:47 PM 40.9225 -103.7940 44° Northeast 484 557 25,900 1,258 Climbing FlightAware ADS-B
Mon 12:15:18 PM 40.9729 -103.7290 44° Northeast 490 564 26,500 1,219 Climbing FlightAware ADS-B
Mon 12:15:51 PM 41.0270 -103.6570 45° Northeast 499 574 27,200 1,043 Climbing FlightAware ADS-B
Mon 12:16:04 PM 41.0433 -103.6270 54° Northeast 503 579 27,300 545 Climbing FlightAware ADS-B
Mon 12:16:13 PM 41.0540 -103.6010 61° Northeast 508 585 27,400 706 Climbing FlightAware ADS-B
Mon 12:16:21 PM 41.0610 -103.5790 67° East 512 589 27,500 923 Climbing FlightAware ADS-B
Mon 12:16:26 PM 41.0652 -103.5620 72° East 512 589 27,600 1,029 Climbing FlightAware ADS-B
Mon 12:16:56 PM 41.0842 -103.4710 74° East 516 594 28,100 984 Climbing FlightAware ADS-B
Mon 12:17:27 PM 41.1042 -103.3770 74° East 524 603 28,600 984 Climbing FlightAware ADS-B
Mon 12:17:57 PM 41.1243 -103.2840 74° East 529 609 29,100 1,279 Climbing FlightAware ADS-B
Mon 12:18:28 PM 41.1444 -103.1900 74° East 526 605 29,900 1,524 Climbing FlightAware ADS-B
Mon 12:19:00 PM 41.1660 -103.0890 74° East 523 602 30,700 1,521 Climbing FlightAware ADS-B
Mon 12:19:39 PM 41.1906 -102.9700 75° East 521 600 31,700 1,543 Climbing FlightAware ADS-B
Mon 12:20:10 PM 41.2097 -102.8770 75° East 513 590 32,500 1,377 Climbing FlightAware ADS-B
Mon 12:20:40 PM 41.2284 -102.7850 75° East 511 588 33,100 1,219 Climbing FlightAware ADS-B
Mon 12:21:14 PM 41.2495 -102.6810 75° East 511 588 33,800 1,182 Climbing FlightAware ADS-B
Mon 12:21:46 PM 41.2686 -102.5870 75° East 509 586 34,400 1,065 Climbing FlightAware ADS-B
Mon 12:22:16 PM 41.2869 -102.4960 75° East 509 586 34,900 1,031 Climbing FlightAware ADS-B
Mon 12:22:50 PM 41.3074 -102.3940 75° East 508 585 35,500 985 Climbing FlightAware ADS-B
Mon 12:23:23 PM 41.3275 -102.2930 75° East 507 583 36,000 923 Climbing FlightAware ADS-B
Mon 12:23:55 PM 41.3462 -102.1990 75° East 506 582 36,500 857 Climbing FlightAware ADS-B
Mon 12:24:26 PM 41.3647 -102.1050 75° East 506 582 36,900 361 Climbing FlightAware ADS-B
Mon 12:25:18 PM 41.3956 -101.9470 75° East 507 583 37,000 67 Climbing FlightAware ADS-B
Mon 12:25:55 PM 41.4169 -101.8380 75° East 506 582 37,000  Level FlightAware ADS-B
Mon 12:26:25 PM 41.4340 -101.7480 76° East 505 581 37,000  Level FlightAware ADS-B
Mon 12:27:07 PM 41.4590 -101.6210 75° East 504 580 37,000  Level FlightAware ADS-B
Mon 12:27:33 PM 41.4741 -101.5420 76° East 505 581 37,000  Level FlightAware ADS-B
Mon 12:28:04 PM 41.4917 -101.4500 76° East 504 580 37,000  Level FlightAware ADS-B
Mon 12:28:40 PM 41.5124 -101.3410 76° East 503 579 37,000  Level FlightAware ADS-B
Mon 12:29:10 PM 41.5292 -101.2581 76° East 501 577 37,000  Level Denver Center
Mon 12:30:12 PM 41.5608 -101.0831 76° East 503 579 37,000  Level Denver Center
Mon 12:36:26 PM 41.7685 -99.9399 76° East 504 580 37,000  Level FlightAware ADS-B
Mon 12:37:00 PM 41.7861 -99.8393 77° East 500 575 37,000  Level FlightAware ADS-B
Mon 12:37:31 PM 41.8026 -99.7442 77° East 499 574 37,000  Level FlightAware ADS-B
Mon 12:38:02 PM 41.8188 -99.6515 77° East 499 574 37,000  Level FlightAware ADS-B
Mon 12:39:10 PM 41.8540 -99.4472 77° East 499 574 37,000  Level FlightAware ADS-B
Mon 12:39:41 PM 41.8695 -99.3573 77° East 496 571 37,000  Level FlightAware ADS-B
Mon 12:40:11 PM 41.8848 -99.2672 77° East 494 568 37,000  Level FlightAware ADS-B
Mon 12:40:41 PM 41.8999 -99.1770 77° East 494 568 37,000  Level FlightAware ADS-B
Mon 12:41:11 PM 41.9148 -99.0893 77° East 492 566 37,000  Level FlightAware ADS-B
Mon 12:41:42 PM 41.9301 -98.9972 77° East 491 565 37,000  Level FlightAware ADS-B
Mon 12:42:13 PM 41.9457 -98.9036 77° East 491 565 37,000  Level FlightAware ADS-B
Mon 12:42:52 PM 41.9649 -98.7869 77° East 490 564 37,000  Level FlightAware ADS-B
Mon 12:43:23 PM 41.9796 -98.6975 77° East 490 564 37,000  Level FlightAware ADS-B
Mon 12:43:51 PM 41.9934 -98.6135 78° East 492 566 37,000  Level FlightAware ADS-B
Mon 12:44:22 PM 42.0083 -98.5213 78° East 492 566 37,000  Level FlightAware ADS-B
Mon 12:44:52 PM 42.0230 -98.4313 78° East 492 566 37,000  Level FlightAware ADS-B
Mon 12:45:22 PM 42.0376 -98.3410 78° East 492 566 37,000  Level FlightAware ADS-B
Mon 12:45:52 PM 42.0521 -98.2505 78° East 492 566 37,000  Level FlightAware ADS-B
Mon 12:46:23 PM 42.0664 -98.1608 78° East 492 566 37,000  Level FlightAware ADS-B
Mon 12:46:53 PM 42.0809 -98.0693 78° East 492 566 37,000  Level FlightAware ADS-B
Mon 12:47:23 PM 42.0950 -97.9796 78° East 493 567 37,000  Level FlightAware ADS-B
Mon 12:48:00 PM 42.1123 -97.8700 78° East 495 570 37,000  Level FlightAware ADS-B
Mon 12:48:30 PM 42.1264 -97.7795 78° East 496 571 37,000  Level FlightAware ADS-B
Mon 12:49:00 PM 42.1406 -97.6881 78° East 496 571 37,000  Level FlightAware ADS-B
Mon 12:49:30 PM 42.1547 -97.5967 78° East 498 573 37,000  Level FlightAware ADS-B
Mon 12:50:01 PM 42.1688 -97.5052 78° East 500 575 37,000  Level FlightAware ADS-B
Mon 12:50:21 PM 42.1786 -97.4412 78° East 501 577 37,000  Level FlightAware ADS-B
Mon 12:50:52 PM 42.1923 -97.3507 78° East 502 578 37,000  Level FlightAware ADS-B
Mon 12:51:22 PM 42.2066 -97.2557 78° East 503 579 37,000  Level FlightAware ADS-B
Mon 12:51:52 PM 42.2205 -97.1636 78° East 505 581 37,000  Level FlightAware ADS-B
Mon 12:52:22 PM 42.2342 -97.0706 79° East 506 582 37,000  Level FlightAware ADS-B
Mon 12:52:53 PM 42.2480 -96.9774 79° East 506 582 37,000  Level FlightAware ADS-B
Mon 12:53:24 PM 42.2623 -96.8807 79° East 506 582 37,000  Level FlightAware ADS-B
Mon 12:53:54 PM 42.2758 -96.7883 79° East 505 581 37,000  Level FlightAware ADS-B
Mon 12:54:24 PM 42.2894 -96.6950 79° East 504 580 37,000  Level FlightAware ADS-B
Mon 12:54:55 PM 42.3031 -96.6005 79° East 504 580 37,000  Level FlightAware ADS-B
Mon 12:55:26 PM 42.3168 -96.5048 79° East 503 579 37,000  Level FlightAware ADS-B
Mon 12:55:56 PM 42.3300 -96.4127 79° East 503 579 37,000  Level FlightAware ADS-B
Mon 12:56:26 PM 42.3433 -96.3198 79° East 503 579 37,000  Level FlightAware ADS-B
Mon 12:56:58 PM 42.3572 -96.2211 79° East 503 579 37,000  Level FlightAware ADS-B
Mon 12:57:29 PM 42.3704 -96.1267 79° East 503 579 37,000  Level FlightAware ADS-B
Mon 12:57:59 PM 42.3836 -96.0323 79° East 504 580 37,000  Level FlightAware ADS-B
Mon 12:58:30 PM 42.3967 -95.9387 79° East 505 581 37,000  Level FlightAware ADS-B
Mon 12:59:00 PM 42.4097 -95.8449 79° East 506 582 37,000  Level FlightAware ADS-B
Mon 12:59:31 PM 42.4229 -95.7494 79° East 505 581 37,000  Level FlightAware ADS-B
Mon 01:00:01 PM 42.4355 -95.6555 80° East 506 582 37,000  Level FlightAware ADS-B
Mon 01:00:31 PM 42.4482 -95.5604 80° East 507 583 37,000  Level FlightAware ADS-B
Mon 01:01:02 PM 42.4609 -95.4664 80° East 506 582 37,000  Level FlightAware ADS-B
Mon 01:01:32 PM 42.4735 -95.3728 80° East 506 582 37,000  Level FlightAware ADS-B
Mon 01:02:03 PM 42.4862 -95.2767 80° East 506 582 37,000  Level FlightAware ADS-B
Mon 01:02:33 PM 42.4986 -95.1826 80° East 506 582 37,000  Level FlightAware ADS-B
Mon 01:03:04 PM 42.5110 -95.0874 80° East 506 582 37,000  Level FlightAware ADS-B
Mon 01:03:34 PM 42.5232 -94.9930 80° East 506 582 37,000  Level FlightAware ADS-B
Mon 01:04:04 PM 42.5352 -94.8999 80° East 505 581 37,000  Level FlightAware ADS-B
Mon 01:04:37 PM 42.5482 -94.7969 80° East 505 581 37,000  Level FlightAware ADS-B
Mon 01:05:08 PM 42.5602 -94.7024 80° East 504 580 37,000  Level FlightAware ADS-B
Mon 01:05:38 PM 42.5723 -94.6071 80° East 504 580 37,000  Level FlightAware ADS-B
Mon 01:06:08 PM 42.5841 -94.5138 80° East 504 580 37,000  Level FlightAware ADS-B
Mon 01:06:39 PM 42.5961 -94.4177 80° East 504 580 37,000  Level FlightAware ADS-B
Mon 01:07:10 PM 42.6073 -94.3213 81° East 505 581 37,000  Level FlightAware ADS-B
Mon 01:07:21 PM 42.6093 -94.2854 86° East 506 582 37,000  Level FlightAware ADS-B
Mon 01:07:53 PM 42.6078 -94.1845 91° East 507 583 37,000  Level FlightAware ADS-B
Mon 01:08:24 PM 42.6048 -94.0868 92° East 507 583 37,000  Level FlightAware ADS-B
Mon 01:08:54 PM 42.6020 -93.9903 92° East 507 583 37,000  Level FlightAware ADS-B
Mon 01:09:25 PM 42.5989 -93.8948 92° East 509 586 37,000  Level FlightAware ADS-B
Mon 01:09:55 PM 42.5956 -93.7962 93° East 510 587 37,000  Level FlightAware ADS-B
Mon 01:10:30 PM 42.5917 -93.6854 93° East 510 587 37,000  Level FlightAware ADS-B
Mon 01:11:37 PM 42.5840 -93.4730 93° East 510 587 37,000  Level FlightAware ADS-B
Mon 01:12:15 PM 42.5790 -93.3510 93° East 510 587 37,000  Level FlightAware ADS-B
Mon 01:12:59 PM 42.5740 -93.2130 93° East 509 586 37,000  Level FlightAware ADS-B
Mon 01:13:45 PM 42.5680 -93.0650 93° East 509 586 37,000 -357 Level FlightAware ADS-B
Mon 01:14:23 PM 42.5640 -92.9440 93° East 508 585 36,500 -1,154 Descending FlightAware ADS-B
Mon 01:15:03 PM 42.5790 -92.8220 80° East 509 586 35,500 -1,500 Descending FlightAware ADS-B
Mon 01:15:43 PM 42.5980 -92.6980 78° East 515 593 34,500 -1,500 Descending FlightAware ADS-B
Mon 01:16:23 PM 42.5970 -92.5690 91° East 511 588 33,500 -1,071 Descending FlightAware ADS-B
Mon 01:17:07 PM 42.5780 -92.4350 101° East 499 574 33,000 -390 Descending FlightAware ADS-B
Mon 01:17:40 PM 42.5650 -92.3410 101° East 498 573 33,000 -423 Level FlightAware ADS-B
Mon 01:18:18 PM 42.5460 -92.2160 102° East 503 579 32,500 -857 Descending FlightAware ADS-B
Mon 01:19:04 PM 42.5270 -92.0710 100° East 505 581 31,800 -1,023 Descending FlightAware ADS-B
Mon 01:19:46 PM 42.5250 -91.9400 91° East 488 562 31,000 -571 Descending FlightAware ADS-B
Mon 01:20:28 PM 42.5250 -91.8150 90° East 468 539 31,000  Level FlightAware ADS-B
Mon 01:21:08 PM 42.5260 -91.6970 89° East 466 536 31,000  Level FlightAware ADS-B
Mon 01:21:52 PM 42.5260 -91.5680 90° East 465 535 31,000  Level FlightAware ADS-B
Mon 01:22:30 PM 42.5270 -91.4600 89° East 465 535 31,000  Level FlightAware ADS-B
Mon 01:23:06 PM 42.5270 -91.3550 90° East 465 535 31,000  Level FlightAware ADS-B
Mon 01:23:53 PM 42.5270 -91.2180 90° East 465 535 31,000  Level FlightAware ADS-B
Mon 01:24:34 PM 42.5270 -91.1000 90° East 466 536 31,000 -623 Level FlightAware ADS-B
Mon 01:25:10 PM 42.5270 -90.9940 90° East 466 536 30,200 -1,357 Descending FlightAware ADS-B
Mon 01:25:58 PM 42.5260 -90.8540 91° East 454 522 29,100 -1,326 Descending FlightAware ADS-B
Mon 01:26:36 PM 42.5260 -90.7480 90° East 446 513 28,300 -1,286 Descending FlightAware ADS-B
Mon 01:27:22 PM 42.5250 -90.6220 91° East 439 505 27,300 -1,333 Descending FlightAware ADS-B
Mon 01:28:06 PM 42.5240 -90.5000 91° East 439 505 26,300 -1,271 Descending FlightAware ADS-B
Mon 01:28:47 PM 42.5240 -90.3880 90° East 432 497 25,500 -1,275 Descending FlightAware ADS-B
Mon 01:29:26 PM 42.5230 -90.2850 91° East 422 486 24,600 -1,343 Descending FlightAware ADS-B
Mon 01:29:54 PM 42.5220 -90.2110 91° East 415 478 24,000 -1,151 Descending FlightAware ADS-B
Mon 01:30:39 PM 42.5210 -90.0970 91° East 395 455 23,200 -1,109 Descending FlightAware ADS-B
Mon 01:31:26 PM 42.5200 -89.9850 91° East 381 438 22,300 -1,253 Descending FlightAware ADS-B
Mon 01:32:10 PM 42.5120 -89.8800 96° East 380 437 21,300 -1,395 Descending FlightAware ADS-B
Mon 01:32:52 PM 42.5020 -89.7820 98° East 377 434 20,300 -1,390 Descending FlightAware ADS-B
Mon 01:33:32 PM 42.4930 -89.6890 97° East 371 427 19,400 -1,308 Descending FlightAware ADS-B
Mon 01:34:10 PM 42.4850 -89.6010 97° East 370 426 18,600 -1,286 Descending FlightAware ADS-B
Mon 01:34:56 PM 42.4750 -89.4980 97° East 367 422 17,600 -1,326 Descending FlightAware ADS-B
Mon 01:35:36 PM 42.4670 -89.4080 97° East 365 420 16,700 -1,319 Descending FlightAware ADS-B
Mon 01:36:27 PM 42.4550 -89.2900 98° East 361 415 15,600 -1,174 Descending FlightAware ADS-B
Mon 01:37:08 PM 42.4460 -89.1990 98° East 383 441 14,900 -1,129 Descending FlightAware ADS-B
Mon 01:37:52 PM 42.4350 -89.0900 98° East 399 459 14,000 -1,241 Descending FlightAware ADS-B
Mon 01:38:35 PM 42.4240 -88.9830 98° East 398 458 13,100 -825 Descending FlightAware ADS-B
Mon 01:39:12 PM 42.4150 -88.8930 98° East 396 456 12,900 -667 Descending FlightAware ADS-B
Mon 01:39:56 PM 42.4040 -88.7850 98° East 395 455 12,200 -1,103 Descending FlightAware ADS-B
Mon 01:40:39 PM 42.3940 -88.6790 97° East 392 451 11,300 -1,247 Descending FlightAware ADS-B
Mon 01:41:13 PM 42.3850 -88.5990 99° East 384 442 10,600 -1,105 Descending FlightAware ADS-B
Mon 01:41:55 PM 42.3730 -88.5010 99° East 379 436 9,900 -592 Descending FlightAware ADS-B
Mon 01:42:24 PM 42.3560 -88.4350 109° East 377 434 9,900 111 Level FlightAware ADS-B
Mon 01:42:49 PM 42.3360 -88.3840 118° Southeast 377 434 10,000 113 Climbing FlightAware ADS-B
Mon 01:43:17 PM 42.3060 -88.3310 127° Southeast 378 435 10,000 -115 Level FlightAware ADS-B
Mon 01:43:41 PM 42.2800 -88.2880 129° Southeast 377 434 9,900 -113 Descending FlightAware ADS-B
Mon 01:44:10 PM 42.2480 -88.2340 129° Southeast 377 434 9,900  Level FlightAware ADS-B
Mon 01:44:38 PM 42.2160 -88.1850 131° Southeast 365 420 9,900 -160 Level FlightAware ADS-B
Mon 01:45:25 PM 42.1580 -88.1290 144° Southeast 317 365 9,700 -789 Descending FlightAware ADS-B
Mon 01:45:54 PM 42.1230 -88.0940 143° Southeast 317 365 8,900 -1,467 Descending FlightAware ADS-B
Mon 01:46:10 PM 42.1040 -88.0750 143° Southeast 313 360 8,600 -1,091 Descending FlightAware ADS-B
Mon 01:46:38 PM 42.0720 -88.0430 143° Southeast 307 353 8,100 -1,059 Descending FlightAware ADS-B
Mon 01:46:44 PM 42.0650 -88.0360 143° Southeast 305 351 8,000 -1,333 Descending FlightAware ADS-B
Mon 01:47:14 PM 42.0310 -88.0040 145° Southeast 298 343 7,300 -1,082 Descending FlightAware ADS-B
Mon 01:47:45 PM 41.9950 -87.9790 153° Southeast 295 339 6,900 -522 Descending FlightAware ADS-B
Mon 01:48:00 PM 41.9750 -87.9660 154° Southeast 293 337 6,900  Level FlightAware ADS-B
Mon 01:48:29 PM 41.9410 -87.9410 151° Southeast 288 331 6,900  Level FlightAware ADS-B
Mon 01:48:41 PM 41.9300 -87.9250 133° Southeast 281 323 6,900 150 Level FlightAware ADS-B
Mon 01:49:09 PM 41.9160 -87.8850 115° Southeast 252 290 7,000 -103 Climbing FlightAware ADS-B
Mon 01:49:39 PM 41.9030 -87.8440 113° Southeast 230 265 6,800 -429 Descending FlightAware ADS-B
Mon 01:49:51 PM 41.9020 -87.8320 96° East 229 264 6,700 -1,421 Descending FlightAware ADS-B
Mon 01:50:17 PM 41.9030 -87.7900 88° East 232 267 5,900 -1,556 Descending FlightAware ADS-B
Mon 01:50:45 PM 41.9050 -87.7520 86° East 229 264 5,300 -1,333 Descending FlightAware ADS-B
Mon 01:51:02 PM 41.9080 -87.7270 81° East 230 265 4,900 -1,655 Descending FlightAware ADS-B
Mon 01:51:14 PM 41.9150 -87.7140 54° Northeast 223 257 4,500 -1,714 Descending FlightAware ADS-B
Mon 01:51:30 PM 41.9290 -87.7060 23° Northeast 205 236 4,100 -1,263 Descending FlightAware ADS-B
Mon 01:51:52 PM 41.9410 -87.7120 340° North 179 206 3,700 -2,000 Descending FlightAware ADS-B
Mon 01:52:09 PM 41.9560 -87.7310 317° Northwest 177 204 2,800 -1,660 Descending FlightAware ADS-B
Mon 01:52:39 PM 41.9690 -87.7560 305° West 144 166 2,400 -737 Descending FlightAware ADS-B
Mon 01:53:06 PM 41.9690 -87.7770 270° West 133 153 2,100 -737 Descending FlightAware ADS-B
Mon 01:53:36 PM 41.9690 -87.8030 270° West 135 155 1,700 -769 Descending FlightAware ADS-B
Mon 01:53:45 PM 41.9690 -87.8110 270° West 136 157 1,600 -615 Descending FlightAware ADS-B
Mon 01:54:15 PM 41.9690 -87.8360 270° West 144 166 1,300 -724 Descending FlightAware ADS-B
Mon 01:54:43 PM 41.9690 -87.8630 270° West 150 173 900 -857 Descending FlightAware ADS-B
Mon 01:55:22 PM 41.9690 -87.8990 270° West 135 155 -1,385 Descending FlightAware ADS-B

Login

Don't have an account? Register now (free) for customized features, flight alerts, and more!